This is the latest recevied weather packets stored in our database for station/object W4MSI. If no packets are shown the sender has not sent any weather packets the latest 10 day(s).
| Time | Temp. | Humidity | Pressure | Rain* | Wind** | Luminosity | Snow |
|---|---|---|---|---|---|---|---|
| 1777906273 | 20.56° C | 59% | 1012.2 hPa | 0 mm | - | 574 W/m² | - |
| 1777905971 | 20° C | 59% | 1012.2 hPa | 0 mm | - | 547 W/m² | - |
| 1777905667 | 20° C | 59% | 1012.4 hPa | 0 mm | - | 536 W/m² | - |
| 1777905364 | 20° C | 61% | 1012.6 hPa | 0 mm | - | 515 W/m² | - |
| 1777905062 | 19.44° C | 60% | 1012.4 hPa | 0 mm | - | 446 W/m² | - |
| 1777904759 | 18.89° C | 62% | 1012.7 hPa | 0 mm | - | 482 W/m² | - |
| 1777904456 | 18.89° C | 63% | 1012.7 hPa | 0 mm | - | 447 W/m² | - |
| 1777904152 | 18.89° C | 63% | 1012.6 hPa | 0 mm | - | 430 W/m² | - |
| 1777903849 | 18.33° C | 62% | 1012.5 hPa | 0 mm | - | 424 W/m² | - |
| 1777903546 | 18.33° C | 62% | 1012.5 hPa | 0 mm | - | 397 W/m² | - |
| 1777903242 | 17.78° C | 64% | 1012.7 hPa | 0 mm | - | 375 W/m² | - |
| 1777902938 | 17.78° C | 64% | 1012.6 hPa | 0 mm | - | 367 W/m² | - |
| 1777902636 | 17.78° C | 63% | 1012.7 hPa | 0 mm | - | 337 W/m² | - |
| 1777902333 | 17.78° C | 61% | 1012.6 hPa | 0 mm | - | 320 W/m² | - |
| 1777902030 | 17.78° C | 63% | 1012.7 hPa | 0 mm | - | 315 W/m² | - |
| 1777901728 | 17.22° C | 63% | 1012.8 hPa | 0 mm | - | 293 W/m² | - |
| 1777901425 | 16.67° C | 64% | 1013 hPa | 0 mm | - | 267 W/m² | - |
| 1777901123 | 16.67° C | 64% | 1013 hPa | 0 mm | - | 256 W/m² | - |
| 1777900820 | 16.67° C | 63% | 1012.9 hPa | 0 mm | - | 236 W/m² | - |
| 1777900517 | 16.67° C | 63% | 1012.9 hPa | 0 mm | - | 233 W/m² | - |
| 1777900214 | 16.67° C | 63% | 1012.9 hPa | 0 mm | - | 226 W/m² | - |
| 1777899910 | 16.67° C | 63% | 1012.9 hPa | 0 mm | - | 198 W/m² | - |
| 1777899608 | 16.11° C | 64% | 1012.9 hPa | 0 mm | - | 166 W/m² | - |
| 1777899305 | 15° C | 67% | 1012.9 hPa | 0 mm | - | 173 W/m² | - |
| 1777899003 | 15° C | 69% | 1012.8 hPa | 0 mm | - | 169 W/m² | - |
* Rain latest hour (hover to see other rain measurements)
** Current wind speed in m/s (hover to see current wind gust speed)